createdAt,value
2022-07-28T00:00:04.630Z,14.68
2022-07-28T00:01:05.077Z,14.66
2022-07-28T00:02:06.615Z,14.65
2022-07-28T00:03:05.774Z,14.63
2022-07-28T00:04:05.781Z,14.62
2022-07-28T00:05:06.370Z,14.61
2022-07-28T00:06:06.552Z,14.60
2022-07-28T00:06:17.210Z,14.40
2022-07-28T00:07:18.070Z,14.37
2022-07-28T00:08:18.249Z,14.37
2022-07-28T00:09:18.406Z,14.37
2022-07-28T00:10:18.448Z,14.37
2022-07-28T00:11:19.845Z,14.37
2022-07-28T00:12:20.254Z,14.36
2022-07-28T00:13:19.709Z,14.35
2022-07-28T00:14:21.329Z,14.34
2022-07-28T00:15:21.154Z,14.33
2022-07-28T00:16:22.376Z,14.33
2022-07-28T00:17:21.602Z,14.33
2022-07-28T00:18:21.857Z,14.32
2022-07-28T00:19:23.804Z,14.32
2022-07-28T00:20:23.882Z,14.31
2022-07-28T00:21:23.022Z,14.30
2022-07-28T00:22:23.151Z,14.30
2022-07-28T00:23:24.185Z,14.30
2022-07-28T00:24:23.253Z,14.29
2022-07-28T00:25:23.429Z,14.28
2022-07-28T00:26:23.427Z,14.26
2022-07-28T00:27:24.724Z,14.25
2022-07-28T00:28:23.780Z,14.24
2022-07-28T00:29:24.277Z,14.24
2022-07-28T00:30:24.347Z,14.23
2022-07-28T00:31:24.754Z,14.21
2022-07-28T00:32:25.325Z,14.19
2022-07-28T00:32:33.965Z,13.90
2022-07-28T00:33:33.965Z,13.89
2022-07-28T00:34:35.128Z,13.89
2022-07-28T00:35:35.129Z,13.89
2022-07-28T00:36:36.312Z,13.89
2022-07-28T00:37:36.035Z,13.90
2022-07-28T00:38:36.124Z,13.91
2022-07-28T00:39:36.457Z,13.91
2022-07-28T00:40:37.609Z,13.91
2022-07-28T00:41:36.842Z,13.91
2022-07-28T00:42:37.838Z,13.91
2022-07-28T00:43:37.870Z,13.91
2022-07-28T00:44:39.104Z,13.91
2022-07-28T00:45:38.097Z,13.91
2022-07-28T00:46:38.726Z,13.90
2022-07-28T00:48:13.841Z,13.77
2022-07-28T00:49:14.864Z,13.75
2022-07-28T00:50:14.837Z,13.76
2022-07-28T00:51:15.552Z,13.76
2022-07-28T00:52:16.857Z,13.75
2022-07-28T00:53:17.201Z,13.75
2022-07-28T00:54:17.598Z,13.75
2022-07-28T00:55:17.040Z,13.74
2022-07-28T00:56:18.048Z,13.73
2022-07-28T00:57:18.367Z,13.73
2022-07-28T00:58:17.556Z,13.70
2022-07-28T00:59:18.689Z,13.68
2022-07-28T01:00:17.672Z,13.67
2022-07-28T01:01:18.932Z,13.66
2022-07-28T01:02:19.684Z,13.65
2022-07-28T01:03:18.604Z,13.63
2022-07-28T01:04:19.664Z,13.62
2022-07-28T01:05:18.862Z,13.61
2022-07-28T01:06:19.751Z,13.60
2022-07-28T01:07:19.851Z,13.59
2022-07-28T01:08:20.101Z,13.59
2022-07-28T01:09:21.681Z,13.59
2022-07-28T01:10:21.975Z,13.59
2022-07-28T01:11:21.217Z,13.58
2022-07-28T01:11:31.867Z,13.43
2022-07-28T01:12:32.098Z,13.38
2022-07-28T01:13:33.371Z,13.38
2022-07-28T01:14:32.704Z,13.38
2022-07-28T01:15:33.078Z,13.38
2022-07-28T01:16:34.426Z,13.39
2022-07-28T01:17:33.761Z,13.39
2022-07-28T01:18:34.150Z,13.39
2022-07-28T01:19:34.229Z,13.39
2022-07-28T01:20:34.399Z,13.40
2022-07-28T01:21:34.723Z,13.40
2022-07-28T01:22:36.047Z,13.40
2022-07-28T01:23:35.169Z,13.40
2022-07-28T01:24:35.323Z,13.39
2022-07-28T01:25:36.396Z,13.39
2022-07-28T01:26:35.670Z,13.39
2022-07-28T01:27:36.174Z,13.38
2022-07-28T01:28:37.271Z,13.38
2022-07-28T01:29:36.479Z,13.38
2022-07-28T01:30:36.792Z,13.37
2022-07-28T01:31:37.225Z,13.36
2022-07-28T01:32:37.396Z,13.36
2022-07-28T01:33:38.514Z,13.35
2022-07-28T01:34:38.688Z,13.35
2022-07-28T01:35:39.294Z,13.35
2022-07-28T01:36:39.454Z,13.35
2022-07-28T01:36:51.594Z,13.40
2022-07-28T01:37:51.915Z,13.38
2022-07-28T01:38:53.834Z,13.38
2022-07-28T01:39:54.067Z,13.38
2022-07-28T01:40:54.147Z,13.38
2022-07-28T01:41:53.422Z,13.38
2022-07-28T01:42:53.901Z,13.38
2022-07-28T01:43:55.269Z,13.39
2022-07-28T01:44:55.802Z,13.39
2022-07-28T01:45:56.062Z,13.38
2022-07-28T01:46:55.418Z,13.38
2022-07-28T01:47:56.111Z,13.37
2022-07-28T01:48:57.630Z,13.36
2022-07-28T01:49:56.690Z,13.35
2022-07-28T01:50:57.905Z,13.34
2022-07-28T01:51:58.258Z,13.32
2022-07-28T01:52:58.584Z,13.30
2022-07-28T01:53:58.763Z,13.28
2022-07-28T01:54:59.126Z,13.26
2022-07-28T01:55:59.754Z,13.25
2022-07-28T01:57:00.343Z,13.23
2022-07-28T01:58:00.678Z,13.21
2022-07-28T01:58:10.774Z,13.00
2022-07-28T01:59:12.311Z,12.98
2022-07-28T02:00:12.959Z,12.97
2022-07-28T02:01:13.536Z,12.97
2022-07-28T02:02:12.697Z,12.97
2022-07-28T02:03:13.978Z,12.97
2022-07-28T02:04:14.765Z,12.97
2022-07-28T02:05:14.038Z,12.98
2022-07-28T02:06:14.078Z,12.98
2022-07-28T02:07:15.192Z,12.98
2022-07-28T02:08:15.431Z,12.97
2022-07-28T02:09:15.513Z,12.97
2022-07-28T02:10:15.632Z,12.96
2022-07-28T02:11:15.792Z,12.94
2022-07-28T02:12:16.059Z,12.92
2022-07-28T02:13:16.490Z,12.90
2022-07-28T02:14:17.433Z,12.89
2022-07-28T02:15:15.967Z,12.87
2022-07-28T02:16:17.208Z,12.86
2022-07-28T02:17:16.418Z,12.86
2022-07-28T02:18:17.635Z,12.84
2022-07-28T02:19:17.768Z,12.83
2022-07-28T02:19:26.361Z,12.69
2022-07-28T02:20:27.482Z,12.68
2022-07-28T02:21:27.476Z,12.68
2022-07-28T02:22:27.600Z,12.67
2022-07-28T02:23:28.002Z,12.67
2022-07-28T02:24:28.178Z,12.67
2022-07-28T02:25:27.210Z,12.67
2022-07-28T02:26:28.670Z,12.66
2022-07-28T02:27:28.973Z,12.66
2022-07-28T02:28:28.239Z,12.66
2022-07-28T02:29:49.591Z,12.66
2022-07-28T02:30:28.654Z,12.64
2022-07-28T02:31:29.802Z,12.63
2022-07-28T02:32:28.927Z,12.62
2022-07-28T02:33:59.885Z,12.61
2022-07-28T02:34:29.219Z,12.60
2022-07-28T02:35:32.202Z,12.60
2022-07-28T02:36:30.416Z,12.60
2022-07-28T02:37:30.646Z,12.60
2022-07-28T02:38:31.775Z,12.60
2022-07-28T02:39:32.159Z,12.59
2022-07-28T02:40:33.078Z,12.60
2022-07-28T02:40:41.734Z,12.56
2022-07-28T02:41:43.373Z,12.51
2022-07-28T02:42:43.498Z,12.51
2022-07-28T02:43:50.364Z,12.52
2022-07-28T02:44:43.520Z,12.52
2022-07-28T02:45:45.492Z,12.53
2022-07-28T02:46:44.596Z,12.53
2022-07-28T02:47:44.557Z,12.52
2022-07-28T02:48:45.803Z,12.51
2022-07-28T02:49:44.837Z,12.50
2022-07-28T02:50:46.201Z,12.48
2022-07-28T02:51:46.401Z,12.48
2022-07-28T02:52:45.428Z,12.47
2022-07-28T02:53:46.589Z,12.47
2022-07-28T02:54:45.724Z,12.47
2022-07-28T02:55:47.103Z,12.47
2022-07-28T02:56:53.582Z,12.47
2022-07-28T02:57:46.883Z,12.46
2022-07-28T02:58:48.180Z,12.46
2022-07-28T02:59:48.718Z,12.45
2022-07-28T03:00:49.165Z,12.44
2022-07-28T03:00:58.494Z,12.33
2022-07-28T03:01:58.615Z,12.31
2022-07-28T03:02:58.599Z,12.30
2022-07-28T03:04:00.333Z,12.31
2022-07-28T03:05:01.392Z,12.31
2022-07-28T03:06:00.482Z,12.32
2022-07-28T03:07:01.580Z,12.33
2022-07-28T03:08:02.540Z,12.34
2022-07-28T03:09:02.617Z,12.34
2022-07-28T03:10:02.019Z,12.35
2022-07-28T03:11:02.524Z,12.36
2022-07-28T03:12:03.716Z,12.36
2022-07-28T03:13:04.664Z,12.37
2022-07-28T03:14:04.920Z,12.37
2022-07-28T03:15:05.171Z,12.37
2022-07-28T03:16:05.802Z,12.38
2022-07-28T03:17:06.078Z,12.37
2022-07-28T03:18:05.474Z,12.37
2022-07-28T03:19:06.593Z,12.37
2022-07-28T03:20:07.531Z,12.37
2022-07-28T03:21:07.946Z,12.38
2022-07-28T03:22:10.468Z,12.38
2022-07-28T03:23:07.592Z,12.38
2022-07-28T03:23:16.925Z,12.42
2022-07-28T03:24:17.427Z,12.39
2022-07-28T03:25:17.527Z,12.39
2022-07-28T03:26:17.917Z,12.39
2022-07-28T03:27:19.674Z,12.40
2022-07-28T03:28:20.091Z,12.40
2022-07-28T03:29:20.517Z,12.40
2022-07-28T03:30:19.786Z,12.41
2022-07-28T03:31:20.995Z,12.41
2022-07-28T03:32:20.284Z,12.42
2022-07-28T03:33:21.445Z,12.42
2022-07-28T03:34:20.706Z,12.43
2022-07-28T03:35:22.218Z,12.43
2022-07-28T03:36:22.225Z,12.43
2022-07-28T03:37:23.196Z,12.43
2022-07-28T03:38:23.315Z,12.43
2022-07-28T03:39:23.952Z,12.42
2022-07-28T03:40:24.898Z,12.41
2022-07-28T03:41:25.103Z,12.41
2022-07-28T03:42:25.124Z,12.40
2022-07-28T03:43:26.119Z,12.39
2022-07-28T03:44:27.698Z,12.37
2022-07-28T03:45:26.123Z,12.35
2022-07-28T03:45:40.817Z,12.08
2022-07-28T03:46:39.857Z,12.07
2022-07-28T03:47:40.356Z,12.07
2022-07-28T03:48:41.448Z,12.08
2022-07-28T03:49:40.582Z,12.08
2022-07-28T03:50:41.937Z,12.08
2022-07-28T03:51:43.579Z,12.09
2022-07-28T03:52:42.846Z,12.09
2022-07-28T03:53:43.096Z,12.09
2022-07-28T03:54:43.585Z,12.08
2022-07-28T03:55:44.189Z,12.08
2022-07-28T03:56:43.345Z,12.08
2022-07-28T03:57:44.908Z,12.07
2022-07-28T03:58:47.950Z,12.06
2022-07-28T03:59:46.327Z,12.06
2022-07-28T04:00:45.524Z,12.05
2022-07-28T04:01:49.244Z,12.05
2022-07-28T04:02:48.570Z,12.04
2022-07-28T04:03:48.701Z,12.04
2022-07-28T04:04:49.759Z,12.04
2022-07-28T04:05:48.848Z,12.03
2022-07-28T04:06:50.760Z,12.03
2022-07-28T04:07:51.760Z,12.02
2022-07-28T04:08:00.398Z,11.93
2022-07-28T04:09:01.322Z,11.92
2022-07-28T04:10:01.511Z,11.92
2022-07-28T04:11:02.810Z,11.92
2022-07-28T04:12:03.018Z,11.92
2022-07-28T04:13:03.133Z,11.93
2022-07-28T04:14:03.060Z,11.94
2022-07-28T04:15:04.467Z,11.94
2022-07-28T04:16:05.434Z,11.95
2022-07-28T04:17:04.588Z,11.96
2022-07-28T04:18:04.539Z,11.97
2022-07-28T04:19:06.455Z,11.97
2022-07-28T04:20:07.324Z,11.98
2022-07-28T04:21:07.371Z,11.99
2022-07-28T04:22:08.349Z,12.00
2022-07-28T04:23:08.375Z,12.01
2022-07-28T04:24:09.128Z,12.01
2022-07-28T04:25:09.929Z,12.02
2022-07-28T04:26:10.807Z,12.03
2022-07-28T04:27:11.571Z,12.05
2022-07-28T04:27:20.254Z,12.40
2022-07-28T04:28:21.122Z,12.38
2022-07-28T04:29:27.104Z,12.38
2022-07-28T04:30:22.660Z,12.38
2022-07-28T04:31:24.529Z,12.38
2022-07-28T04:32:24.903Z,12.39
2022-07-28T04:33:23.899Z,12.38
2022-07-28T04:34:25.518Z,12.38
2022-07-28T04:35:26.328Z,12.37
2022-07-28T04:36:27.160Z,12.37
2022-07-28T04:37:32.534Z,12.37
2022-07-28T04:38:27.042Z,12.36
2022-07-28T04:39:28.909Z,12.36
2022-07-28T04:40:29.670Z,12.36
2022-07-28T04:41:30.467Z,12.37
2022-07-28T04:42:31.405Z,12.36
2022-07-28T04:43:32.566Z,12.35
2022-07-28T04:44:30.701Z,12.35
2022-07-28T04:45:31.623Z,12.35
2022-07-28T04:46:32.376Z,12.35
2022-07-28T04:47:33.266Z,12.35
2022-07-28T04:48:35.877Z,12.36
2022-07-28T04:49:35.680Z,12.37
2022-07-28T04:50:34.785Z,12.39
2022-07-28T04:51:35.942Z,12.42
2022-07-28T04:52:36.795Z,12.45
2022-07-28T04:52:52.837Z,13.36
2022-07-28T04:53:53.252Z,13.35
2022-07-28T04:54:54.410Z,13.37
2022-07-28T04:55:55.233Z,13.39
2022-07-28T04:56:56.063Z,13.44
2022-07-28T04:57:56.077Z,13.50
2022-07-28T04:58:57.068Z,13.56
2022-07-28T04:59:57.965Z,13.61
2022-07-28T05:00:58.285Z,13.66
2022-07-28T05:01:57.915Z,13.75
2022-07-28T05:02:59.049Z,13.85
2022-07-28T05:03:59.098Z,13.96
2022-07-28T05:04:59.863Z,14.10
2022-07-28T05:05:58.779Z,14.23
2022-07-28T05:07:00.747Z,14.37
2022-07-28T05:07:59.896Z,14.52
2022-07-28T05:09:01.096Z,14.68
2022-07-28T05:10:01.540Z,14.85
2022-07-28T05:11:01.244Z,15.03
2022-07-28T05:12:02.497Z,15.21
2022-07-28T05:12:16.151Z,17.69
2022-07-28T05:13:16.145Z,17.66
2022-07-28T05:14:17.704Z,17.67
2022-07-28T05:15:17.436Z,17.69
2022-07-28T05:16:19.433Z,17.69
2022-07-28T05:17:19.294Z,17.68
2022-07-28T05:18:21.114Z,17.69
2022-07-28T05:19:22.086Z,17.69
2022-07-28T05:20:22.268Z,17.69
2022-07-28T05:21:22.370Z,17.69
2022-07-28T05:22:22.440Z,17.68
2022-07-28T05:23:24.375Z,17.66
2022-07-28T05:24:25.209Z,17.67
2022-07-28T05:25:25.080Z,17.68
2022-07-28T05:26:26.386Z,17.70
2022-07-28T05:27:27.292Z,17.72
2022-07-28T05:28:27.531Z,17.77
2022-07-28T05:29:46.829Z,17.82
2022-07-28T05:30:27.525Z,17.91
2022-07-28T05:31:29.297Z,18.02
2022-07-28T05:32:29.184Z,18.15
2022-07-28T05:33:31.901Z,18.27
2022-07-28T05:34:30.145Z,18.39
2022-07-28T05:35:30.330Z,18.54
2022-07-28T05:35:40.467Z,20.83
2022-07-28T05:36:42.622Z,20.80
2022-07-28T05:37:42.343Z,20.79
2022-07-28T05:38:43.097Z,20.78
2022-07-28T05:39:43.945Z,20.78
2022-07-28T05:40:44.460Z,20.77
2022-07-28T05:41:44.295Z,20.73
2022-07-28T05:42:46.070Z,20.67
2022-07-28T05:43:46.179Z,20.61
2022-07-28T05:44:46.633Z,20.55
2022-07-28T05:45:46.879Z,20.49
2022-07-28T05:46:46.406Z,20.41
2022-07-28T05:47:46.970Z,20.33
2022-07-28T05:48:48.808Z,20.27
2022-07-28T05:49:49.433Z,20.18
2022-07-28T05:50:49.930Z,20.10
2022-07-28T05:51:49.891Z,20.03
2022-07-28T05:52:51.484Z,19.97
2022-07-28T05:53:50.404Z,19.90
2022-07-28T05:54:51.912Z,19.83
2022-07-28T05:55:01.556Z,18.61
2022-07-28T05:56:02.105Z,18.61
2022-07-28T05:57:03.023Z,18.62
2022-07-28T05:58:04.887Z,18.62
2022-07-28T05:59:05.837Z,18.63
2022-07-28T06:00:06.822Z,18.62
2022-07-28T06:01:06.699Z,18.60
2022-07-28T06:02:08.096Z,18.58
2022-07-28T06:03:07.940Z,18.58
2022-07-28T06:04:26.837Z,18.61
2022-07-28T06:05:09.024Z,18.67
2022-07-28T06:06:15.960Z,18.75
2022-07-28T06:07:10.768Z,18.86
2022-07-28T06:08:10.841Z,19.00
2022-07-28T06:09:12.760Z,19.15
2022-07-28T06:10:13.521Z,19.31
2022-07-28T06:11:21.599Z,19.47
2022-07-28T06:12:13.919Z,19.65
2022-07-28T06:13:14.441Z,19.85
2022-07-28T06:14:16.923Z,20.07
2022-07-28T06:15:15.416Z,20.25
2022-07-28T06:16:16.374Z,20.40
2022-07-28T06:17:17.218Z,20.56
2022-07-28T06:18:18.294Z,20.71
2022-07-28T06:19:18.555Z,20.87
2022-07-28T06:19:30.233Z,22.84
2022-07-28T06:20:31.117Z,22.59
2022-07-28T06:21:36.972Z,22.55
2022-07-28T06:22:32.836Z,22.55
2022-07-28T06:23:34.041Z,22.57
2022-07-28T06:24:34.761Z,22.56
2022-07-28T06:25:35.574Z,22.61
2022-07-28T06:26:35.033Z,22.63
2022-07-28T06:27:36.845Z,22.66
2022-07-28T06:28:37.816Z,22.74
2022-07-28T06:29:37.619Z,22.84
2022-07-28T06:30:38.546Z,22.94
2022-07-28T06:31:40.348Z,23.03
2022-07-28T06:32:39.550Z,23.12
2022-07-28T06:33:41.422Z,23.18
2022-07-28T06:34:42.305Z,23.28
2022-07-28T06:35:50.056Z,23.38
2022-07-28T06:36:42.272Z,23.45
2022-07-28T06:37:45.177Z,23.53
2022-07-28T06:38:45.070Z,23.61
2022-07-28T06:39:44.921Z,23.70
2022-07-28T06:39:55.073Z,24.74
2022-07-28T06:40:55.894Z,24.76
2022-07-28T06:41:56.360Z,24.78
2022-07-28T06:42:56.356Z,24.73
2022-07-28T06:43:57.097Z,24.71
2022-07-28T06:44:59.283Z,24.68
2022-07-28T06:45:56.533Z,24.71
2022-07-28T06:46:58.151Z,24.78
2022-07-28T06:47:56.955Z,24.88
2022-07-28T06:48:58.029Z,25.00
2022-07-28T06:49:58.634Z,25.15
2022-07-28T06:51:00.413Z,25.32
2022-07-28T06:52:01.394Z,25.52
2022-07-28T06:53:00.886Z,25.70
2022-07-28T06:54:01.635Z,25.91
2022-07-28T06:55:02.376Z,26.10
2022-07-28T06:56:02.761Z,26.28
2022-07-28T06:57:03.158Z,26.45
2022-07-28T06:58:04.821Z,26.58
2022-07-28T06:59:05.724Z,26.74
2022-07-28T07:00:06.570Z,26.88
2022-07-28T07:01:07.799Z,27.03
2022-07-28T07:01:16.153Z,29.37
2022-07-28T07:02:16.780Z,29.34
2022-07-28T07:03:17.557Z,29.31
2022-07-28T07:04:19.692Z,29.28
2022-07-28T07:05:19.293Z,29.27
2022-07-28T07:06:20.785Z,29.29
2022-07-28T07:07:21.633Z,29.34
2022-07-28T07:08:21.407Z,29.39
2022-07-28T07:09:23.207Z,29.44
2022-07-28T07:10:23.188Z,29.51
2022-07-28T07:11:23.735Z,29.57
2022-07-28T07:12:23.911Z,29.58
2022-07-28T07:13:24.843Z,29.58
2022-07-28T07:14:23.838Z,29.59
2022-07-28T07:15:25.167Z,29.59
2022-07-28T07:16:25.717Z,29.59
2022-07-28T07:17:24.863Z,29.60
2022-07-28T07:18:26.746Z,29.60
2022-07-28T07:19:26.317Z,29.61
2022-07-28T07:20:28.178Z,29.62
2022-07-28T07:21:27.365Z,29.62
2022-07-28T07:21:37.039Z,29.28
2022-07-28T07:22:37.266Z,29.29
2022-07-28T07:23:37.501Z,29.32
2022-07-28T07:24:37.673Z,29.32
2022-07-28T07:25:36.918Z,29.35
2022-07-28T07:26:38.123Z,29.36
2022-07-28T07:27:38.959Z,29.37
2022-07-28T07:28:38.927Z,29.35
2022-07-28T07:29:39.982Z,29.35
2022-07-28T07:30:40.874Z,29.37
2022-07-28T07:31:40.494Z,29.38
2022-07-28T07:32:41.051Z,29.39
2022-07-28T07:33:42.011Z,29.40
2022-07-28T07:34:42.842Z,29.41
2022-07-28T07:35:43.969Z,29.43
2022-07-28T07:36:44.843Z,29.42
2022-07-28T07:37:45.096Z,29.39
2022-07-28T07:38:45.984Z,29.33
2022-07-28T07:39:45.914Z,29.26
2022-07-28T07:40:47.900Z,29.19
2022-07-28T07:41:47.462Z,29.05
2022-07-28T07:42:48.729Z,28.92
2022-07-28T07:42:58.359Z,26.62
2022-07-28T07:44:00.101Z,26.58
2022-07-28T07:44:59.125Z,26.59
2022-07-28T07:46:00.492Z,26.59
2022-07-28T07:47:00.585Z,26.58
2022-07-28T07:48:01.280Z,26.53
2022-07-28T07:49:02.591Z,26.50
2022-07-28T07:50:04.327Z,26.47
2022-07-28T07:51:02.225Z,26.44
2022-07-28T07:52:03.927Z,26.42
2022-07-28T07:53:04.022Z,26.40
2022-07-28T07:54:04.981Z,26.38
2022-07-28T07:55:04.070Z,26.35
2022-07-28T07:56:05.267Z,26.31
2022-07-28T07:57:05.450Z,26.27
2022-07-28T07:58:04.458Z,26.22
2022-07-28T07:59:06.169Z,26.17
2022-07-28T08:00:06.324Z,26.14
2022-07-28T08:01:06.439Z,26.11
2022-07-28T08:02:05.750Z,26.09
2022-07-28T08:03:11.021Z,26.07
2022-07-28T08:04:06.888Z,26.03
2022-07-28T08:05:07.688Z,25.99
2022-07-28T08:06:08.112Z,25.94
2022-07-28T08:07:10.551Z,25.88
2022-07-28T08:08:09.096Z,25.80
2022-07-28T08:08:17.113Z,24.33
2022-07-28T08:09:19.100Z,24.25
2022-07-28T08:10:19.018Z,24.25
2022-07-28T08:11:18.736Z,24.23
2022-07-28T08:12:25.277Z,24.19
2022-07-28T08:13:19.002Z,24.14
2022-07-28T08:14:20.908Z,24.11
2022-07-28T08:15:21.213Z,24.07
2022-07-28T08:16:21.721Z,24.03
2022-07-28T08:17:25.678Z,23.98
2022-07-28T08:18:21.719Z,23.94
2022-07-28T08:19:22.820Z,23.92
2022-07-28T08:20:22.786Z,23.89
2022-07-28T08:21:23.629Z,23.88
2022-07-28T08:22:24.852Z,23.86
2022-07-28T08:23:26.342Z,23.83
2022-07-28T08:24:32.911Z,23.80
2022-07-28T08:25:26.284Z,23.76
2022-07-28T08:26:27.391Z,23.73
2022-07-28T08:27:28.080Z,23.71
2022-07-28T08:28:28.479Z,23.70
2022-07-28T08:29:28.717Z,23.69
2022-07-28T08:29:39.343Z,23.70
2022-07-28T08:30:40.072Z,23.71
2022-07-28T08:31:52.188Z,23.71
2022-07-28T08:32:56.737Z,23.71
2022-07-28T08:33:54.924Z,23.71
2022-07-28T08:35:15.902Z,23.70
2022-07-28T08:35:54.385Z,23.71
2022-07-28T08:36:55.271Z,23.71
2022-07-28T08:37:56.357Z,23.70
2022-07-28T08:38:55.684Z,23.71
2022-07-28T08:39:56.522Z,23.73
2022-07-28T08:40:59.262Z,23.73
2022-07-28T08:41:58.643Z,23.74
2022-07-28T08:42:59.442Z,23.76
2022-07-28T08:43:59.297Z,23.78
2022-07-28T08:45:01.385Z,23.80
2022-07-28T08:46:00.401Z,23.82
2022-07-28T08:47:01.779Z,23.83
2022-07-28T08:48:09.868Z,23.83
2022-07-28T08:48:14.140Z,23.93
2022-07-28T08:49:15.933Z,23.90
2022-07-28T08:50:15.357Z,23.91
2022-07-28T08:51:16.621Z,23.93
2022-07-28T08:52:17.072Z,23.95
2022-07-28T08:53:16.838Z,23.98
2022-07-28T08:54:18.602Z,24.00
2022-07-28T08:55:20.542Z,24.02
2022-07-28T08:56:19.548Z,24.04
2022-07-28T08:57:19.590Z,24.06
2022-07-28T08:58:18.763Z,24.07
2022-07-28T08:59:20.258Z,24.09
2022-07-28T09:00:25.338Z,24.12
2022-07-28T09:01:21.195Z,24.14
2022-07-28T09:02:20.394Z,24.16
2022-07-28T09:03:20.567Z,24.18
2022-07-28T09:04:21.121Z,24.21
2022-07-28T09:05:22.290Z,24.23
2022-07-28T09:06:21.706Z,24.24
2022-07-28T09:07:22.628Z,24.26
2022-07-28T09:08:23.617Z,24.28
2022-07-28T09:08:32.764Z,24.59
2022-07-28T09:09:33.114Z,24.57
2022-07-28T09:10:34.705Z,24.59
2022-07-28T09:11:34.725Z,24.59
2022-07-28T09:12:33.798Z,24.61
2022-07-28T09:13:35.568Z,24.63
2022-07-28T09:14:34.775Z,24.64
2022-07-28T09:15:36.195Z,24.65
2022-07-28T09:16:35.838Z,24.65
2022-07-28T09:17:35.988Z,24.65
2022-07-28T09:18:37.244Z,24.65
2022-07-28T09:19:37.273Z,24.64
2022-07-28T09:20:37.950Z,24.64
2022-07-28T09:21:37.863Z,24.64
2022-07-28T09:22:38.910Z,24.64
2022-07-28T09:23:44.058Z,24.63
2022-07-28T09:24:38.157Z,24.63
2022-07-28T09:25:38.192Z,24.64
2022-07-28T09:26:39.575Z,24.65
2022-07-28T09:27:39.611Z,24.66
2022-07-28T09:28:40.201Z,24.67
2022-07-28T09:29:39.205Z,24.68
2022-07-28T09:29:47.852Z,24.84
2022-07-28T09:30:54.289Z,24.80
2022-07-28T09:31:55.411Z,24.79
2022-07-28T09:32:49.531Z,24.80
2022-07-28T09:33:51.082Z,24.81
2022-07-28T09:34:51.896Z,24.83
2022-07-28T09:35:50.719Z,24.83
2022-07-28T09:36:52.332Z,24.85
2022-07-28T09:37:53.081Z,24.88
2022-07-28T09:38:54.028Z,24.92
2022-07-28T09:39:54.211Z,24.96
2022-07-28T09:40:54.292Z,25.00
2022-07-28T09:41:55.456Z,25.04
2022-07-28T09:42:54.908Z,25.08
2022-07-28T09:43:56.824Z,25.12
2022-07-28T09:45:20.273Z,25.17
2022-07-28T09:45:55.641Z,25.22
2022-07-28T09:46:56.163Z,25.26
2022-07-28T09:47:56.497Z,25.26
2022-07-28T09:48:59.821Z,25.28
2022-07-28T09:51:07.453Z,25.95
2022-07-28T09:52:04.901Z,25.92
2022-07-28T09:53:05.207Z,25.93
2022-07-28T09:54:06.819Z,25.94
2022-07-28T09:55:07.858Z,25.94
2022-07-28T09:56:07.698Z,25.95
2022-07-28T09:57:07.483Z,25.98
2022-07-28T09:58:41.404Z,26.00
2022-07-28T09:59:38.541Z,25.98
2022-07-28T10:00:40.614Z,25.99
2022-07-28T10:01:40.685Z,26.00
2022-07-28T10:02:40.647Z,26.00
2022-07-28T10:03:44.011Z,26.02
2022-07-28T10:04:41.224Z,26.04
2022-07-28T10:05:41.538Z,26.05
2022-07-28T10:06:42.601Z,26.06
2022-07-28T10:07:42.304Z,26.07
2022-07-28T10:08:45.119Z,26.07
2022-07-28T10:09:43.078Z,26.08
2022-07-28T10:10:43.802Z,26.06
2022-07-28T10:11:44.814Z,26.03
2022-07-28T10:12:44.087Z,25.98
2022-07-28T10:13:45.383Z,25.95
2022-07-28T10:14:45.657Z,25.92
2022-07-28T10:15:48.198Z,25.89
2022-07-28T10:16:46.556Z,25.88
2022-07-28T10:17:48.165Z,25.86
2022-07-28T10:18:00.871Z,25.65
2022-07-28T10:19:09.098Z,25.64
2022-07-28T10:20:03.000Z,25.63
2022-07-28T10:21:02.240Z,25.61
2022-07-28T10:22:03.728Z,25.59
2022-07-28T10:23:04.181Z,25.58
2022-07-28T10:24:04.059Z,25.58
2022-07-28T10:25:04.955Z,25.59
2022-07-28T10:26:06.606Z,25.62
2022-07-28T10:27:05.760Z,25.65
2022-07-28T10:28:06.261Z,25.69
2022-07-28T10:29:07.361Z,25.74
2022-07-28T10:30:08.291Z,25.78
2022-07-28T10:31:07.676Z,25.81
2022-07-28T10:32:07.785Z,25.83
2022-07-28T10:33:08.038Z,25.85
2022-07-28T10:34:10.900Z,25.89
2022-07-28T10:35:08.859Z,25.93
2022-07-28T10:36:10.109Z,25.97
2022-07-28T10:37:09.570Z,26.01
2022-07-28T10:38:10.582Z,26.07
2022-07-28T10:39:10.499Z,26.13
2022-07-28T10:40:11.061Z,26.18
2022-07-28T10:41:10.894Z,26.25
2022-07-28T10:42:12.435Z,26.32
2022-07-28T10:42:30.558Z,27.59
2022-07-28T10:43:31.367Z,27.58
2022-07-28T10:44:35.353Z,27.57
2022-07-28T10:45:55.088Z,27.55
2022-07-28T10:46:32.782Z,27.54
2022-07-28T10:47:36.333Z,27.52
2022-07-28T10:48:34.127Z,27.50
2022-07-28T10:49:34.849Z,27.48
2022-07-28T10:50:35.713Z,27.46
2022-07-28T10:51:48.709Z,27.44
2022-07-28T10:52:47.315Z,27.39
2022-07-28T10:53:37.365Z,27.35
2022-07-28T10:54:38.267Z,27.29
2022-07-28T10:55:40.781Z,27.23
2022-07-28T10:56:39.472Z,27.17
2022-07-28T10:57:41.070Z,27.10
2022-07-28T10:58:40.274Z,27.05
2022-07-28T10:59:40.493Z,27.00
2022-07-28T11:00:55.482Z,26.94
2022-07-28T11:01:49.761Z,26.87
2022-07-28T11:02:42.793Z,26.81
2022-07-28T11:03:43.363Z,26.76
2022-07-28T11:04:43.751Z,26.72
2022-07-28T11:05:45.543Z,26.68
2022-07-28T11:05:54.161Z,26.32
2022-07-28T11:06:54.942Z,26.30
2022-07-28T11:07:56.926Z,26.30
2022-07-28T11:08:57.105Z,26.29
2022-07-28T11:09:57.995Z,26.28
2022-07-28T11:11:07.609Z,26.27
2022-07-28T11:11:59.154Z,26.27
2022-07-28T11:12:59.314Z,26.27
2022-07-28T11:14:00.308Z,26.26
2022-07-28T11:15:18.285Z,26.26
2022-07-28T11:16:02.316Z,26.26
2022-07-28T11:17:02.379Z,26.25
2022-07-28T11:18:03.237Z,26.25
2022-07-28T11:19:04.564Z,26.24
2022-07-28T11:21:05.965Z,26.25
2022-07-28T11:22:06.921Z,26.25
2022-07-28T11:23:07.319Z,26.25
2022-07-28T11:24:08.032Z,26.25
2022-07-28T11:25:19.389Z,26.25
2022-07-28T11:26:09.002Z,26.25
2022-07-28T11:27:09.694Z,26.25
2022-07-28T11:28:11.522Z,26.24
2022-07-28T11:29:11.854Z,26.22
2022-07-28T11:30:11.453Z,26.21
2022-07-28T11:31:12.783Z,26.21
2022-07-28T11:32:12.562Z,26.20
2022-07-28T11:33:13.757Z,26.19
2022-07-28T11:33:27.216Z,26.18
2022-07-28T11:34:27.219Z,26.16
2022-07-28T11:35:29.191Z,26.15
2022-07-28T11:36:30.063Z,26.16
2022-07-28T11:37:30.056Z,26.16
2022-07-28T11:38:31.011Z,26.17
2022-07-28T11:39:31.166Z,26.17
2022-07-28T11:40:30.183Z,26.18
2022-07-28T11:41:31.559Z,26.19
2022-07-28T11:42:31.531Z,26.19
2022-07-28T11:43:36.216Z,26.20
2022-07-28T11:44:32.305Z,26.20
2022-07-28T11:45:38.451Z,26.20
2022-07-28T11:46:33.479Z,26.18
2022-07-28T11:47:33.710Z,26.18
2022-07-28T11:48:35.698Z,26.18
2022-07-28T11:49:34.990Z,26.17
2022-07-28T11:50:36.014Z,26.17
2022-07-28T11:50:44.657Z,26.14
2022-07-28T11:51:51.311Z,26.13
2022-07-28T11:52:45.990Z,26.13
2022-07-28T11:53:47.176Z,26.13
2022-07-28T11:54:47.801Z,26.13
2022-07-28T11:55:49.917Z,26.11
2022-07-28T11:57:16.105Z,26.02
2022-07-28T11:58:21.628Z,26.02
2022-07-28T11:59:19.550Z,26.02
2022-07-28T12:00:24.854Z,26.02
2022-07-28T12:01:19.090Z,26.03
2022-07-28T12:02:18.422Z,26.04
2022-07-28T12:03:18.553Z,26.05
2022-07-28T12:04:20.676Z,26.06
2022-07-28T12:05:20.033Z,26.06
2022-07-28T12:06:27.224Z,26.06
2022-07-28T12:07:21.389Z,26.05
2022-07-28T12:08:22.264Z,26.05
2022-07-28T12:09:28.200Z,26.05
2022-07-28T12:10:44.033Z,26.05
2022-07-28T12:11:24.134Z,26.06
2022-07-28T12:12:26.239Z,26.07
2022-07-28T12:13:24.488Z,26.06
2022-07-28T12:14:24.522Z,26.05
2022-07-28T12:15:25.678Z,26.04
2022-07-28T12:16:31.945Z,26.04
2022-07-28T12:17:56.475Z,26.21
2022-07-28T12:18:56.801Z,26.19
2022-07-28T12:19:57.296Z,26.19
2022-07-28T12:21:03.063Z,26.20
2022-07-28T12:21:58.059Z,26.21
2022-07-28T12:22:59.982Z,26.22
2022-07-28T12:23:59.337Z,26.24
2022-07-28T12:24:59.809Z,26.26
2022-07-28T12:26:00.626Z,26.28
2022-07-28T12:27:00.968Z,26.31
2022-07-28T12:28:02.143Z,26.34
2022-07-28T12:29:02.072Z,26.37
2022-07-28T12:30:02.165Z,26.41
2022-07-28T12:31:03.496Z,26.45
2022-07-28T12:32:03.153Z,26.49
2022-07-28T12:33:03.134Z,26.51
2022-07-28T12:34:04.628Z,26.53
2022-07-28T12:35:04.690Z,26.55
2022-07-28T12:36:04.800Z,26.58
2022-07-28T12:37:04.885Z,26.61